createdAt,value
2024-03-29T00:00:40.000Z,434.0116271972656
2024-03-29T00:01:43.000Z,432.2604064941406
2024-03-29T00:02:45.000Z,431.8800354003906
2024-03-29T00:03:47.000Z,433.79962158203125
2024-03-29T00:04:49.000Z,432.795654296875
2024-03-29T00:05:51.000Z,433.1501770019531
2024-03-29T00:06:53.000Z,432.4254150390625
2024-03-29T00:07:56.000Z,432.33544921875
2024-03-29T00:08:58.000Z,432.1551208496094
2024-03-29T00:10:00.000Z,432.3609924316406
2024-03-29T00:11:02.000Z,431.9089050292969
2024-03-29T00:12:04.000Z,432.2567443847656
2024-03-29T00:13:06.000Z,430.3923645019531
2024-03-29T00:14:09.000Z,428.68341064453125
2024-03-29T00:15:11.000Z,429.05615234375
2024-03-29T00:16:13.000Z,426.98687744140625
2024-03-29T00:17:15.000Z,426.9564514160156
2024-03-29T00:18:17.000Z,426.8543701171875
2024-03-29T00:19:19.000Z,428.1061706542969
2024-03-29T00:20:21.000Z,428.66217041015625
2024-03-29T00:21:23.000Z,428.4636535644531
2024-03-29T00:22:26.000Z,428.92608642578125
2024-03-29T00:23:28.000Z,428.7933044433594
2024-03-29T00:24:30.000Z,431.5804748535156
2024-03-29T00:25:32.000Z,431.66021728515625
2024-03-29T00:26:34.000Z,432.4770202636719
2024-03-29T00:27:37.000Z,432.1732482910156
2024-03-29T00:28:39.000Z,432.1590576171875
2024-03-29T00:29:41.000Z,431.24176025390625
2024-03-29T00:30:43.000Z,430.9310607910156
2024-03-29T00:31:45.000Z,430.164794921875
2024-03-29T00:32:47.000Z,428.480712890625
2024-03-29T00:33:49.000Z,429.5797119140625
2024-03-29T00:34:52.000Z,430.6156005859375
2024-03-29T00:35:54.000Z,431.0335388183594
2024-03-29T00:36:56.000Z,429.1337890625
2024-03-29T00:37:58.000Z,428.7732238769531
2024-03-29T00:39:00.000Z,429.02520751953125
2024-03-29T00:40:02.000Z,428.28363037109375
2024-03-29T00:41:05.000Z,428.4928894042969
2024-03-29T00:42:07.000Z,428.5804443359375
2024-03-29T00:43:09.000Z,428.8847351074219
2024-03-29T00:44:11.000Z,427.88189697265625
2024-03-29T00:45:13.000Z,428.4938049316406
2024-03-29T00:46:15.000Z,428.74774169921875
2024-03-29T00:47:17.000Z,430.68817138671875
2024-03-29T00:48:19.000Z,430.436279296875
2024-03-29T00:49:22.000Z,430.5449523925781
2024-03-29T00:50:24.000Z,429.07330322265625
2024-03-29T00:51:26.000Z,428.5596923828125
2024-03-29T00:52:28.000Z,426.92724609375
2024-03-29T00:53:30.000Z,426.94573974609375
2024-03-29T00:54:32.000Z,429.41949462890625
2024-03-29T00:55:35.000Z,430.4444885253906
2024-03-29T00:56:37.000Z,432.0445251464844
2024-03-29T00:57:39.000Z,430.3740539550781
2024-03-29T00:58:41.000Z,429.2995910644531
2024-03-29T00:59:43.000Z,428.35784912109375
2024-03-29T01:00:45.000Z,426.0242614746094
2024-03-29T01:01:47.000Z,427.93511962890625
2024-03-29T01:02:50.000Z,428.61309814453125
2024-03-29T01:03:52.000Z,430.1531066894531
2024-03-29T01:04:54.000Z,430.331787109375
2024-03-29T01:05:56.000Z,432.0497741699219
2024-03-29T01:06:58.000Z,433.4049987792969
2024-03-29T01:08:00.000Z,435.962158203125
2024-03-29T01:09:03.000Z,435.03167724609375
2024-03-29T01:10:05.000Z,435.18072509765625
2024-03-29T01:11:07.000Z,434.1226806640625
2024-03-29T01:12:09.000Z,435.5673522949219
2024-03-29T01:13:11.000Z,437.2919921875
2024-03-29T01:14:13.000Z,438.78643798828125
2024-03-29T01:15:15.000Z,437.92730712890625
2024-03-29T01:16:18.000Z,437.2120666503906
2024-03-29T01:17:20.000Z,436.95654296875
2024-03-29T01:18:22.000Z,437.7302551269531
2024-03-29T01:19:24.000Z,435.5845947265625
2024-03-29T01:20:26.000Z,434.5591735839844
2024-03-29T01:21:28.000Z,433.741455078125
2024-03-29T01:22:30.000Z,432.0350341796875
2024-03-29T01:23:33.000Z,431.5152587890625
2024-03-29T01:24:35.000Z,431.0114440917969
2024-03-29T01:25:37.000Z,428.8824462890625
2024-03-29T01:26:39.000Z,428.00201416015625
2024-03-29T01:27:41.000Z,428.7715148925781
2024-03-29T01:28:43.000Z,430.6982421875
2024-03-29T01:29:45.000Z,432.1700744628906
2024-03-29T01:30:48.000Z,433.945068359375
2024-03-29T01:31:50.000Z,434.9297180175781
2024-03-29T01:32:52.000Z,433.2677001953125
2024-03-29T01:33:54.000Z,435.2264404296875
2024-03-29T01:34:56.000Z,433.3064880371094
2024-03-29T01:35:58.000Z,432.8802795410156
2024-03-29T01:37:00.000Z,432.4270324707031
2024-03-29T01:38:03.000Z,432.5710754394531
2024-03-29T01:39:05.000Z,433.9359436035156
2024-03-29T01:40:07.000Z,435.1763916015625
2024-03-29T01:41:09.000Z,437.3149719238281
2024-03-29T01:42:11.000Z,439.2086181640625
2024-03-29T01:43:13.000Z,441.5408935546875
2024-03-29T01:44:15.000Z,443.601318359375
2024-03-29T01:45:17.000Z,439.572265625
2024-03-29T01:46:20.000Z,438.1432189941406
2024-03-29T01:47:22.000Z,437.70538330078125
2024-03-29T01:48:24.000Z,437.22222900390625
2024-03-29T01:49:26.000Z,436.1663818359375
2024-03-29T01:50:28.000Z,436.6998291015625
2024-03-29T01:51:30.000Z,435.99005126953125
2024-03-29T01:52:33.000Z,433.90313720703125
2024-03-29T01:53:35.000Z,436.59600830078125
2024-03-29T01:54:37.000Z,438.4535827636719
2024-03-29T01:55:39.000Z,436.2783203125
2024-03-29T01:56:41.000Z,436.2425537109375
2024-03-29T01:57:43.000Z,438.04107666015625
2024-03-29T01:58:45.000Z,438.1322021484375
2024-03-29T01:59:48.000Z,436.74810791015625
2024-03-29T02:00:50.000Z,436.8434143066406
2024-03-29T02:01:52.000Z,436.0924072265625
2024-03-29T02:02:54.000Z,438.0762634277344
2024-03-29T02:03:56.000Z,439.93115234375
2024-03-29T02:04:58.000Z,439.47662353515625
2024-03-29T02:06:00.000Z,439.1155090332031
2024-03-29T02:07:03.000Z,441.3703918457031
2024-03-29T02:08:05.000Z,440.870849609375
2024-03-29T02:09:07.000Z,438.8800964355469
2024-03-29T02:10:09.000Z,434.2317810058594
2024-03-29T02:11:11.000Z,435.29901123046875
2024-03-29T02:12:13.000Z,433.0250549316406
2024-03-29T02:13:16.000Z,433.8451232910156
2024-03-29T02:14:18.000Z,433.8611145019531
2024-03-29T02:15:20.000Z,433.2376708984375
2024-03-29T02:16:22.000Z,431.3378601074219
2024-03-29T02:17:24.000Z,432.5242004394531
2024-03-29T02:18:26.000Z,432.0489196777344
2024-03-29T02:19:29.000Z,432.58319091796875
2024-03-29T02:20:31.000Z,432.18817138671875
2024-03-29T02:21:33.000Z,432.8791809082031
2024-03-29T02:22:35.000Z,430.473388671875
2024-03-29T02:23:37.000Z,430.2133483886719
2024-03-29T02:24:39.000Z,428.5858459472656
2024-03-29T02:25:41.000Z,428.1002197265625
2024-03-29T02:26:44.000Z,427.52587890625
2024-03-29T02:27:46.000Z,429.005615234375
2024-03-29T02:28:48.000Z,429.111328125
2024-03-29T02:29:50.000Z,429.9071960449219
2024-03-29T02:30:52.000Z,433.05743408203125
2024-03-29T02:31:54.000Z,435.0167541503906
2024-03-29T02:32:57.000Z,434.06744384765625
2024-03-29T02:33:59.000Z,433.7490234375
2024-03-29T02:35:01.000Z,434.54742431640625
2024-03-29T02:36:03.000Z,434.10528564453125
2024-03-29T02:37:05.000Z,434.9960021972656
2024-03-29T02:38:07.000Z,436.7372131347656
2024-03-29T02:39:09.000Z,433.4681701660156
2024-03-29T02:40:12.000Z,432.8938293457031
2024-03-29T02:41:14.000Z,434.29693603515625
2024-03-29T02:42:16.000Z,435.3995361328125
2024-03-29T02:43:18.000Z,437.4962463378906
2024-03-29T02:44:20.000Z,438.4517822265625
2024-03-29T02:45:22.000Z,437.5180969238281
2024-03-29T02:46:25.000Z,435.764892578125
2024-03-29T02:47:27.000Z,434.1473083496094
2024-03-29T02:48:29.000Z,432.5434875488281
2024-03-29T02:49:31.000Z,431.9900207519531
2024-03-29T02:50:33.000Z,430.767333984375
2024-03-29T02:51:35.000Z,433.5823059082031
2024-03-29T02:52:38.000Z,433.9482421875
2024-03-29T02:53:40.000Z,432.06011962890625
2024-03-29T02:54:42.000Z,432.5115966796875
2024-03-29T02:55:44.000Z,434.5368347167969
2024-03-29T02:56:46.000Z,436.3086242675781
2024-03-29T02:57:48.000Z,436.141845703125
2024-03-29T02:58:50.000Z,433.37921142578125
2024-03-29T02:59:53.000Z,433.12908935546875
2024-03-29T03:00:55.000Z,431.07080078125
2024-03-29T03:01:57.000Z,432.4525451660156
2024-03-29T03:02:59.000Z,431.8410949707031
2024-03-29T03:04:01.000Z,433.7020568847656
2024-03-29T03:05:03.000Z,430.9786682128906
2024-03-29T03:06:06.000Z,434.2368469238281
2024-03-29T03:07:08.000Z,435.6119384765625
2024-03-29T03:08:10.000Z,437.3282775878906
2024-03-29T03:09:12.000Z,437.7051086425781
2024-03-29T03:10:14.000Z,435.33526611328125
2024-03-29T03:11:16.000Z,435.022216796875
2024-03-29T03:12:18.000Z,434.2716064453125
2024-03-29T03:13:21.000Z,433.59149169921875
2024-03-29T03:14:23.000Z,434.1162414550781
2024-03-29T03:15:25.000Z,430.7192687988281
2024-03-29T03:16:27.000Z,429.1332702636719
2024-03-29T03:17:29.000Z,429.10400390625
2024-03-29T03:18:31.000Z,432.1663818359375
2024-03-29T03:19:34.000Z,434.3155822753906
2024-03-29T03:20:36.000Z,434.10150146484375
2024-03-29T03:21:38.000Z,435.31549072265625
2024-03-29T03:22:40.000Z,434.7400207519531
2024-03-29T03:23:42.000Z,435.4852294921875
2024-03-29T03:24:44.000Z,434.68133544921875
2024-03-29T03:25:46.000Z,433.2143249511719
2024-03-29T03:26:49.000Z,432.29296875
2024-03-29T03:27:51.000Z,431.0709533691406
2024-03-29T03:28:53.000Z,431.311767578125
2024-03-29T03:29:55.000Z,432.098876953125
2024-03-29T03:30:57.000Z,432.9972229003906
2024-03-29T03:31:59.000Z,432.83123779296875
2024-03-29T03:33:02.000Z,431.45855712890625
2024-03-29T03:34:04.000Z,433.2809143066406
2024-03-29T03:35:06.000Z,431.2969055175781
2024-03-29T03:36:08.000Z,433.4225769042969
2024-03-29T03:37:10.000Z,432.7457275390625
2024-03-29T03:38:12.000Z,433.03985595703125
2024-03-29T03:39:15.000Z,433.4054260253906
2024-03-29T03:40:17.000Z,432.468017578125
2024-03-29T03:41:19.000Z,431.66168212890625
2024-03-29T03:42:21.000Z,433.6380615234375
2024-03-29T03:43:23.000Z,435.9191589355469
2024-03-29T03:44:25.000Z,438.41961669921875
2024-03-29T03:45:28.000Z,439.1304931640625
2024-03-29T03:46:30.000Z,437.4317321777344
2024-03-29T03:47:32.000Z,437.7371520996094
2024-03-29T03:48:34.000Z,435.0157165527344
2024-03-29T03:49:36.000Z,433.6009216308594
2024-03-29T03:50:38.000Z,433.2213134765625
2024-03-29T03:51:40.000Z,432.94219970703125
2024-03-29T03:52:42.000Z,433.36688232421875
2024-03-29T03:53:45.000Z,434.48968505859375
2024-03-29T03:54:47.000Z,435.7237548828125
2024-03-29T03:55:49.000Z,436.0635681152344
2024-03-29T03:56:51.000Z,435.6694641113281
2024-03-29T03:57:53.000Z,435.7186279296875
2024-03-29T03:58:55.000Z,431.0667419433594
2024-03-29T03:59:57.000Z,429.6609191894531
2024-03-29T04:01:00.000Z,427.29425048828125
2024-03-29T04:02:02.000Z,428.0768127441406
2024-03-29T04:03:04.000Z,428.27191162109375
2024-03-29T04:04:06.000Z,430.359619140625
2024-03-29T04:05:08.000Z,432.2640380859375
2024-03-29T04:06:10.000Z,433.9984436035156
2024-03-29T04:07:13.000Z,433.86102294921875
2024-03-29T04:08:15.000Z,434.7282409667969
2024-03-29T04:09:17.000Z,431.62957763671875
2024-03-29T04:10:19.000Z,431.5226135253906
2024-03-29T04:11:21.000Z,429.87109375
2024-03-29T04:12:23.000Z,427.8598937988281
2024-03-29T04:13:26.000Z,427.3740234375
2024-03-29T04:14:28.000Z,428.32537841796875
2024-03-29T04:15:30.000Z,427.5517883300781
2024-03-29T04:16:32.000Z,429.2713623046875
2024-03-29T04:17:34.000Z,429.4955749511719
2024-03-29T04:18:36.000Z,428.63067626953125
2024-03-29T04:19:38.000Z,426.1647644042969
2024-03-29T04:20:41.000Z,424.4390869140625
2024-03-29T04:21:43.000Z,423.15777587890625
2024-03-29T04:22:45.000Z,424.1221618652344
2024-03-29T04:23:47.000Z,424.5393371582031
2024-03-29T04:24:49.000Z,424.6722717285156
2024-03-29T04:25:51.000Z,423.6811828613281
2024-03-29T04:26:54.000Z,422.5335693359375
2024-03-29T04:27:56.000Z,422.7643127441406
2024-03-29T04:28:58.000Z,423.0052185058594
2024-03-29T04:30:00.000Z,425.1436462402344
2024-03-29T04:31:02.000Z,424.43646240234375
2024-03-29T04:32:04.000Z,424.6498718261719
2024-03-29T04:33:06.000Z,424.3416442871094
2024-03-29T04:34:09.000Z,426.1506652832031
2024-03-29T04:35:11.000Z,429.3450012207031
2024-03-29T04:36:13.000Z,429.9622802734375
2024-03-29T04:37:15.000Z,431.1460266113281
2024-03-29T04:38:17.000Z,432.55133056640625
2024-03-29T04:39:19.000Z,435.13031005859375
2024-03-29T04:40:22.000Z,434.2949523925781
2024-03-29T04:41:24.000Z,435.4082336425781
2024-03-29T04:42:26.000Z,437.0867614746094
2024-03-29T04:43:28.000Z,438.209716796875
2024-03-29T04:44:30.000Z,436.69134521484375
2024-03-29T04:45:32.000Z,437.7307434082031
2024-03-29T04:46:34.000Z,438.8710632324219
2024-03-29T04:47:37.000Z,440.93450927734375
2024-03-29T04:48:39.000Z,443.4053039550781
2024-03-29T04:49:41.000Z,441.2868957519531
2024-03-29T04:50:43.000Z,440.0462951660156
2024-03-29T04:51:45.000Z,440.8895568847656
2024-03-29T04:52:47.000Z,441.1540222167969
2024-03-29T04:53:49.000Z,440.00732421875
2024-03-29T04:54:52.000Z,439.8261413574219
2024-03-29T04:55:54.000Z,440.86114501953125
2024-03-29T04:56:56.000Z,440.6093444824219
2024-03-29T04:57:58.000Z,441.9361572265625
2024-03-29T04:59:00.000Z,442.35601806640625
2024-03-29T05:00:02.000Z,443.5056457519531
2024-03-29T05:01:04.000Z,446.83154296875
2024-03-29T05:02:07.000Z,444.6646423339844
2024-03-29T05:03:09.000Z,442.6855163574219
2024-03-29T05:04:11.000Z,443.278076171875
2024-03-29T05:05:13.000Z,443.00970458984375
2024-03-29T05:06:15.000Z,443.095458984375
2024-03-29T05:07:17.000Z,441.6822814941406
2024-03-29T05:08:20.000Z,440.16162109375
2024-03-29T05:09:22.000Z,439.1411437988281
2024-03-29T05:10:24.000Z,438.3691101074219
2024-03-29T05:11:26.000Z,435.4002685546875
2024-03-29T05:12:28.000Z,436.6509704589844
2024-03-29T05:13:30.000Z,436.16021728515625
2024-03-29T05:14:32.000Z,437.4066467285156
2024-03-29T05:15:35.000Z,438.626953125
2024-03-29T05:16:37.000Z,442.1725769042969
2024-03-29T05:17:39.000Z,443.0916442871094
2024-03-29T05:18:41.000Z,441.61163330078125
2024-03-29T05:19:43.000Z,440.2778625488281
2024-03-29T05:20:45.000Z,436.6711120605469
2024-03-29T05:21:47.000Z,436.0197448730469
2024-03-29T05:22:50.000Z,435.2288818359375
2024-03-29T05:23:52.000Z,436.2944641113281
2024-03-29T05:24:54.000Z,435.3500671386719
2024-03-29T05:25:56.000Z,436.8963928222656
2024-03-29T05:26:58.000Z,436.0784912109375
2024-03-29T05:28:00.000Z,438.2763977050781
2024-03-29T05:29:02.000Z,436.72906494140625
2024-03-29T05:30:05.000Z,432.0700378417969
2024-03-29T05:31:07.000Z,432.4544372558594
2024-03-29T05:32:09.000Z,434.0822448730469
2024-03-29T05:33:11.000Z,436.84735107421875
2024-03-29T05:34:13.000Z,435.4925537109375
2024-03-29T05:35:15.000Z,434.239990234375
2024-03-29T05:36:17.000Z,433.3760070800781
2024-03-29T05:37:20.000Z,434.0286865234375
2024-03-29T05:38:22.000Z,434.5351257324219
2024-03-29T05:39:24.000Z,435.1673583984375
2024-03-29T05:40:26.000Z,435.82470703125
2024-03-29T05:41:28.000Z,432.04296875
2024-03-29T05:42:30.000Z,430.7398376464844
2024-03-29T05:43:33.000Z,429.88720703125
2024-03-29T05:44:35.000Z,428.33056640625
2024-03-29T05:45:37.000Z,425.5714416503906
2024-03-29T05:46:39.000Z,425.5423583984375
2024-03-29T05:47:41.000Z,424.4744567871094
2024-03-29T05:48:43.000Z,423.87689208984375
2024-03-29T05:49:45.000Z,424.5399475097656
2024-03-29T05:50:48.000Z,428.6310729980469
2024-03-29T05:51:50.000Z,428.0713806152344
2024-03-29T05:52:52.000Z,429.01043701171875
2024-03-29T05:53:54.000Z,430.4217529296875
2024-03-29T05:54:56.000Z,435.30914306640625
2024-03-29T05:55:58.000Z,434.3298034667969
2024-03-29T05:57:00.000Z,433.8116455078125
2024-03-29T05:58:03.000Z,434.9693298339844
2024-03-29T05:59:05.000Z,432.9140625
2024-03-29T06:00:07.000Z,430.8796081542969
2024-03-29T06:01:09.000Z,429.55474853515625
2024-03-29T06:02:11.000Z,429.8864440917969
2024-03-29T06:03:13.000Z,429.2677001953125
2024-03-29T06:04:16.000Z,429.7660217285156
2024-03-29T06:05:18.000Z,428.2706604003906
2024-03-29T06:06:20.000Z,427.5150146484375
2024-03-29T06:07:22.000Z,428.6347961425781
2024-03-29T06:08:24.000Z,429.82183837890625
2024-03-29T06:09:26.000Z,429.9539794921875
2024-03-29T06:10:28.000Z,431.1700744628906
2024-03-29T06:11:31.000Z,430.99188232421875
2024-03-29T06:12:33.000Z,432.03851318359375
2024-03-29T06:13:35.000Z,434.0086669921875
2024-03-29T06:14:37.000Z,435.42047119140625
2024-03-29T06:15:39.000Z,434.2253112792969
2024-03-29T06:16:41.000Z,434.5921630859375
2024-03-29T06:17:44.000Z,435.8507080078125
2024-03-29T06:18:46.000Z,436.03717041015625
2024-03-29T06:19:48.000Z,435.42486572265625
2024-03-29T06:20:50.000Z,436.10205078125
2024-03-29T06:21:52.000Z,436.4238586425781
2024-03-29T06:22:54.000Z,435.180419921875
2024-03-29T06:23:57.000Z,434.0208740234375
2024-03-29T06:24:59.000Z,433.3712463378906
2024-03-29T06:26:01.000Z,432.6236572265625
2024-03-29T06:27:03.000Z,432.0569152832031
2024-03-29T06:28:05.000Z,431.32623291015625
2024-03-29T06:29:07.000Z,431.2891845703125
2024-03-29T06:30:10.000Z,430.31964111328125
2024-03-29T06:31:12.000Z,431.9809265136719
2024-03-29T06:32:14.000Z,433.17919921875
2024-03-29T06:33:16.000Z,435.22625732421875
2024-03-29T06:34:18.000Z,436.44451904296875
2024-03-29T06:35:20.000Z,436.876708984375
2024-03-29T06:36:22.000Z,436.33612060546875
2024-03-29T06:37:24.000Z,435.3426513671875
2024-03-29T06:38:27.000Z,434.3375549316406
2024-03-29T06:39:29.000Z,435.1203918457031
2024-03-29T06:40:31.000Z,434.55419921875
2024-03-29T06:41:33.000Z,433.258544921875
2024-03-29T06:42:35.000Z,435.555908203125
2024-03-29T06:43:37.000Z,439.1509094238281
2024-03-29T06:44:40.000Z,436.3221130371094
2024-03-29T06:45:42.000Z,434.9879455566406
2024-03-29T06:46:44.000Z,434.14166259765625
2024-03-29T06:47:46.000Z,433.2447204589844
2024-03-29T06:48:48.000Z,432.3970031738281
2024-03-29T06:49:50.000Z,431.9917907714844
2024-03-29T06:50:53.000Z,432.3764343261719
2024-03-29T06:51:55.000Z,431.1835021972656
2024-03-29T06:52:57.000Z,431.2747802734375
2024-03-29T06:53:59.000Z,434.1562194824219
2024-03-29T06:55:01.000Z,434.00933837890625
2024-03-29T06:56:03.000Z,433.9476623535156
2024-03-29T06:57:06.000Z,434.7148132324219
2024-03-29T06:58:08.000Z,433.27508544921875
2024-03-29T06:59:10.000Z,433.8583984375
2024-03-29T07:00:12.000Z,432.8421325683594
2024-03-29T07:01:14.000Z,432.9395751953125
2024-03-29T07:02:16.000Z,432.5965576171875
2024-03-29T07:03:19.000Z,432.06622314453125
2024-03-29T07:04:21.000Z,432.03228759765625
2024-03-29T07:05:23.000Z,430.2193908691406
2024-03-29T07:06:25.000Z,432.0021667480469
2024-03-29T07:07:27.000Z,431.33612060546875
2024-03-29T07:08:29.000Z,432.7875061035156
2024-03-29T07:09:31.000Z,434.80413818359375
2024-03-29T07:10:34.000Z,435.8363342285156
2024-03-29T07:11:36.000Z,434.47259521484375
2024-03-29T07:12:38.000Z,434.52618408203125
2024-03-29T07:13:40.000Z,431.8033447265625
2024-03-29T07:14:42.000Z,432.15972900390625
2024-03-29T07:15:44.000Z,432.1522521972656
2024-03-29T07:16:46.000Z,433.58319091796875
2024-03-29T07:17:49.000Z,434.4315185546875
2024-03-29T07:18:51.000Z,432.80743408203125
2024-03-29T07:19:53.000Z,433.32421875
2024-03-29T07:20:55.000Z,432.91046142578125
2024-03-29T07:21:57.000Z,432.9482116699219
2024-03-29T07:22:59.000Z,433.83221435546875
2024-03-29T07:24:02.000Z,434.35626220703125
2024-03-29T07:25:04.000Z,432.89459228515625
2024-03-29T07:26:06.000Z,432.1087951660156
2024-03-29T07:27:08.000Z,431.8216552734375
2024-03-29T07:28:10.000Z,429.6931457519531
2024-03-29T07:29:12.000Z,431.48834228515625
2024-03-29T07:30:15.000Z,429.6301574707031
2024-03-29T07:31:17.000Z,428.5919189453125
2024-03-29T07:32:19.000Z,426.5873718261719
2024-03-29T07:33:21.000Z,425.1557312011719
2024-03-29T07:34:23.000Z,425.69464111328125
2024-03-29T07:35:25.000Z,426.3489990234375
2024-03-29T07:36:28.000Z,425.01751708984375
2024-03-29T07:37:30.000Z,424.3111572265625
2024-03-29T07:38:32.000Z,423.3769836425781
2024-03-29T07:39:34.000Z,425.03350830078125
2024-03-29T07:40:36.000Z,427.803466796875
2024-03-29T07:41:38.000Z,429.2507629394531
2024-03-29T07:42:40.000Z,426.4229736328125
2024-03-29T07:43:42.000Z,426.79730224609375
2024-03-29T07:44:45.000Z,426.4552001953125
2024-03-29T07:45:47.000Z,426.0650939941406
2024-03-29T07:46:49.000Z,425.5571594238281
2024-03-29T07:47:51.000Z,425.15972900390625
2024-03-29T07:48:53.000Z,424.3345642089844
2024-03-29T07:49:55.000Z,423.9812927246094
2024-03-29T07:50:58.000Z,428.6009521484375
2024-03-29T07:52:00.000Z,430.1243896484375
2024-03-29T07:53:02.000Z,430.8883972167969
2024-03-29T07:54:04.000Z,433.7683410644531
2024-03-29T07:55:06.000Z,434.92462158203125
2024-03-29T07:56:08.000Z,434.2236022949219
2024-03-29T07:57:10.000Z,436.1000671386719
2024-03-29T07:58:13.000Z,439.2794189453125
2024-03-29T07:59:15.000Z,439.2591552734375
2024-03-29T08:00:17.000Z,438.5921630859375
2024-03-29T08:01:19.000Z,439.41796875
2024-03-29T08:02:21.000Z,438.06927490234375
2024-03-29T08:03:23.000Z,437.55096435546875
2024-03-29T08:04:26.000Z,435.8783264160156
2024-03-29T08:05:28.000Z,435.6427001953125
2024-03-29T08:06:30.000Z,436.3409729003906
2024-03-29T08:07:32.000Z,439.59613037109375
2024-03-29T08:08:34.000Z,438.9112548828125
2024-03-29T08:09:36.000Z,438.3856506347656
2024-03-29T08:10:38.000Z,438.77838134765625
2024-03-29T08:11:41.000Z,435.19610595703125
2024-03-29T08:12:43.000Z,432.6795959472656
2024-03-29T08:13:45.000Z,435.1026916503906
2024-03-29T08:14:47.000Z,435.7962341308594
2024-03-29T08:15:49.000Z,438.6807861328125
2024-03-29T08:16:51.000Z,441.8836364746094
2024-03-29T08:17:53.000Z,442.8316955566406
2024-03-29T08:18:56.000Z,441.64971923828125
2024-03-29T08:19:58.000Z,438.1949768066406
2024-03-29T08:21:00.000Z,437.47125244140625
2024-03-29T08:22:02.000Z,436.54296875
2024-03-29T08:23:04.000Z,436.5033874511719
2024-03-29T08:24:06.000Z,437.6311340332031
2024-03-29T08:25:08.000Z,436.0296325683594
2024-03-29T08:26:11.000Z,433.774169921875
2024-03-29T08:27:13.000Z,433.98956298828125
2024-03-29T08:28:15.000Z,435.5772399902344
2024-03-29T08:29:17.000Z,435.7166442871094
2024-03-29T08:30:19.000Z,433.9534606933594
2024-03-29T08:31:21.000Z,433.8821716308594
2024-03-29T08:32:24.000Z,433.2491760253906
2024-03-29T08:33:26.000Z,432.38995361328125
2024-03-29T08:34:28.000Z,432.2366943359375
2024-03-29T08:35:30.000Z,431.2974853515625
2024-03-29T08:36:32.000Z,431.0794677734375
2024-03-29T08:37:34.000Z,429.1754150390625
2024-03-29T08:38:36.000Z,428.14959716796875
2024-03-29T08:39:39.000Z,427.59698486328125
2024-03-29T08:40:41.000Z,428.9641418457031
2024-03-29T08:41:43.000Z,431.1839294433594
2024-03-29T08:42:45.000Z,431.84588623046875
2024-03-29T08:43:47.000Z,430.43988037109375
2024-03-29T08:44:49.000Z,427.7116394042969
2024-03-29T08:45:52.000Z,427.7071228027344
2024-03-29T08:46:54.000Z,426.81634521484375
2024-03-29T08:47:56.000Z,427.53009033203125
2024-03-29T08:48:58.000Z,423.52447509765625
2024-03-29T08:50:00.000Z,422.05975341796875
2024-03-29T08:51:02.000Z,420.78900146484375
2024-03-29T08:52:05.000Z,420.7443542480469
2024-03-29T08:53:07.000Z,421.89581298828125
2024-03-29T08:54:09.000Z,421.0189208984375
2024-03-29T08:55:11.000Z,419.7697448730469
2024-03-29T08:56:13.000Z,420.05926513671875
2024-03-29T08:57:15.000Z,419.6866760253906
2024-03-29T08:58:18.000Z,419.1118469238281
2024-03-29T08:59:20.000Z,420.2290954589844
2024-03-29T09:00:22.000Z,418.2740173339844
2024-03-29T09:01:24.000Z,417.10626220703125
2024-03-29T09:02:26.000Z,415.9331970214844
2024-03-29T09:03:28.000Z,414.77874755859375
2024-03-29T09:04:30.000Z,411.99444580078125
2024-03-29T09:05:33.000Z,411.392578125
2024-03-29T09:06:35.000Z,411.3941955566406
2024-03-29T09:07:37.000Z,411.0337829589844
2024-03-29T09:08:39.000Z,410.62750244140625
2024-03-29T09:09:41.000Z,408.8066711425781
2024-03-29T09:10:43.000Z,407.3988952636719
2024-03-29T09:11:45.000Z,408.7869567871094
2024-03-29T09:12:48.000Z,409.3914794921875
2024-03-29T09:13:50.000Z,408.59100341796875
2024-03-29T09:14:52.000Z,410.1213073730469
2024-03-29T09:15:54.000Z,409.3248291015625
2024-03-29T09:16:56.000Z,409.30767822265625
2024-03-29T09:17:58.000Z,407.0367126464844
2024-03-29T09:19:00.000Z,408.2592468261719
2024-03-29T09:20:02.000Z,408.3948974609375
2024-03-29T09:21:05.000Z,410.70751953125
2024-03-29T09:22:07.000Z,411.163330078125
2024-03-29T09:23:09.000Z,411.8170166015625
2024-03-29T09:24:11.000Z,409.26763916015625
2024-03-29T09:25:13.000Z,411.6753234863281
2024-03-29T09:26:15.000Z,411.8045959472656
2024-03-29T09:27:18.000Z,411.1413269042969
2024-03-29T09:28:20.000Z,410.8824768066406
2024-03-29T09:29:22.000Z,410.3542785644531
2024-03-29T09:30:24.000Z,411.096435546875
2024-03-29T09:31:26.000Z,410.62286376953125
2024-03-29T09:32:28.000Z,412.69195556640625
2024-03-29T09:33:30.000Z,414.6711730957031
2024-03-29T09:34:33.000Z,416.71136474609375
2024-03-29T09:35:35.000Z,416.15167236328125
2024-03-29T09:36:37.000Z,417.7581481933594